sensor_id;sensor_type;location;lat;lon;timestamp;P1;durP1;ratioP1;P2;durP2;ratioP2
69890;SDS011;57170;43.964;21.262;2023-05-16T00:02:18;17.30;;;12.10;;
69890;SDS011;57170;43.964;21.262;2023-05-16T00:04:44;14.18;;;11.35;;
69890;SDS011;57170;43.964;21.262;2023-05-16T00:07:11;16.83;;;11.73;;
69890;SDS011;57170;43.964;21.262;2023-05-16T00:09:38;19.23;;;13.18;;
69890;SDS011;57170;43.964;21.262;2023-05-16T00:12:04;12.70;;;11.27;;
69890;SDS011;57170;43.964;21.262;2023-05-16T00:14:30;14.88;;;11.85;;
69890;SDS011;57170;43.964;21.262;2023-05-16T00:16:57;16.60;;;12.27;;
69890;SDS011;57170;43.964;21.262;2023-05-16T00:19:23;13.63;;;11.25;;
69890;SDS011;57170;43.964;21.262;2023-05-16T00:21:50;13.13;;;11.75;;
69890;SDS011;57170;43.964;21.262;2023-05-16T00:24:17;16.38;;;11.80;;
69890;SDS011;57170;43.964;21.262;2023-05-16T00:26:43;18.08;;;11.82;;
69890;SDS011;57170;43.964;21.262;2023-05-16T00:29:09;16.73;;;12.38;;
69890;SDS011;57170;43.964;21.262;2023-05-16T00:31:35;17.10;;;12.52;;
69890;SDS011;57170;43.964;21.262;2023-05-16T00:34:01;12.55;;;11.30;;
69890;SDS011;57170;43.964;21.262;2023-05-16T00:36:27;16.13;;;12.45;;
69890;SDS011;57170;43.964;21.262;2023-05-16T00:38:54;14.77;;;13.15;;
69890;SDS011;57170;43.964;21.262;2023-05-16T00:41:21;18.55;;;12.73;;
69890;SDS011;57170;43.964;21.262;2023-05-16T00:43:47;19.25;;;11.93;;
69890;SDS011;57170;43.964;21.262;2023-05-16T00:46:14;18.30;;;12.80;;
69890;SDS011;57170;43.964;21.262;2023-05-16T00:48:40;15.02;;;13.23;;
69890;SDS011;57170;43.964;21.262;2023-05-16T00:51:06;14.88;;;13.13;;
69890;SDS011;57170;43.964;21.262;2023-05-16T00:53:33;13.95;;;12.43;;
69890;SDS011;57170;43.964;21.262;2023-05-16T00:56:01;19.95;;;13.43;;
69890;SDS011;57170;43.964;21.262;2023-05-16T00:58:29;14.77;;;13.07;;
69890;SDS011;57170;43.964;21.262;2023-05-16T01:00:56;16.63;;;12.55;;
69890;SDS011;57170;43.964;21.262;2023-05-16T01:03:22;19.50;;;13.55;;
69890;SDS011;57170;43.964;21.262;2023-05-16T01:05:48;21.23;;;14.07;;
69890;SDS011;57170;43.964;21.262;2023-05-16T01:08:15;17.85;;;14.35;;
69890;SDS011;57170;43.964;21.262;2023-05-16T01:10:48;16.80;;;13.82;;
69890;SDS011;57170;43.964;21.262;2023-05-16T01:13:23;16.05;;;13.40;;
69890;SDS011;57170;43.964;21.262;2023-05-16T01:15:57;16.05;;;13.80;;
69890;SDS011;57170;43.964;21.262;2023-05-16T01:18:36;15.77;;;14.13;;
69890;SDS011;57170;43.964;21.262;2023-05-16T01:21:07;20.27;;;14.00;;
69890;SDS011;57170;43.964;21.262;2023-05-16T01:23:51;17.58;;;13.25;;
69890;SDS011;57170;43.964;21.262;2023-05-16T01:26:19;19.08;;;13.15;;
69890;SDS011;57170;43.964;21.262;2023-05-16T01:28:47;14.75;;;13.23;;
69890;SDS011;57170;43.964;21.262;2023-05-16T01:31:13;20.55;;;13.68;;
69890;SDS011;57170;43.964;21.262;2023-05-16T01:33:40;17.15;;;12.95;;
69890;SDS011;57170;43.964;21.262;2023-05-16T01:36:10;18.48;;;13.48;;
69890;SDS011;57170;43.964;21.262;2023-05-16T01:39:00;22.13;;;14.17;;
69890;SDS011;57170;43.964;21.262;2023-05-16T01:43:58;14.13;;;12.55;;
69890;SDS011;57170;43.964;21.262;2023-05-16T01:46:30;15.88;;;13.98;;
69890;SDS011;57170;43.964;21.262;2023-05-16T01:51:31;16.00;;;14.05;;
69890;SDS011;57170;43.964;21.262;2023-05-16T01:53:58;17.48;;;12.90;;
69890;SDS011;57170;43.964;21.262;2023-05-16T01:56:25;21.70;;;14.63;;
69890;SDS011;57170;43.964;21.262;2023-05-16T01:58:53;19.95;;;15.15;;
69890;SDS011;57170;43.964;21.262;2023-05-16T02:01:20;20.42;;;14.38;;
69890;SDS011;57170;43.964;21.262;2023-05-16T02:03:46;16.88;;;14.27;;
69890;SDS011;57170;43.964;21.262;2023-05-16T02:06:12;15.82;;;14.13;;
69890;SDS011;57170;43.964;21.262;2023-05-16T02:08:38;15.07;;;13.40;;
69890;SDS011;57170;43.964;21.262;2023-05-16T02:11:04;18.85;;;14.20;;
69890;SDS011;57170;43.964;21.262;2023-05-16T02:13:30;19.17;;;15.20;;
69890;SDS011;57170;43.964;21.262;2023-05-16T02:15:57;17.98;;;13.43;;
69890;SDS011;57170;43.964;21.262;2023-05-16T02:18:23;20.40;;;15.25;;
69890;SDS011;57170;43.964;21.262;2023-05-16T02:20:50;20.02;;;15.18;;
69890;SDS011;57170;43.964;21.262;2023-05-16T02:23:16;20.20;;;15.10;;
69890;SDS011;57170;43.964;21.262;2023-05-16T02:25:42;18.98;;;16.10;;
69890;SDS011;57170;43.964;21.262;2023-05-16T02:28:09;19.00;;;15.85;;
69890;SDS011;57170;43.964;21.262;2023-05-16T02:30:35;19.45;;;16.35;;
69890;SDS011;57170;43.964;21.262;2023-05-16T02:33:01;18.77;;;16.83;;
69890;SDS011;57170;43.964;21.262;2023-05-16T02:35:27;19.05;;;16.40;;
69890;SDS011;57170;43.964;21.262;2023-05-16T02:37:55;21.45;;;15.90;;
69890;SDS011;57170;43.964;21.262;2023-05-16T02:40:21;18.17;;;16.27;;
69890;SDS011;57170;43.964;21.262;2023-05-16T02:42:47;19.58;;;15.70;;
69890;SDS011;57170;43.964;21.262;2023-05-16T02:45:13;20.00;;;16.52;;
69890;SDS011;57170;43.964;21.262;2023-05-16T02:47:39;22.90;;;16.90;;
69890;SDS011;57170;43.964;21.262;2023-05-16T02:50:05;17.38;;;15.57;;
69890;SDS011;57170;43.964;21.262;2023-05-16T02:52:31;22.27;;;16.30;;
69890;SDS011;57170;43.964;21.262;2023-05-16T02:54:58;19.27;;;14.55;;
69890;SDS011;57170;43.964;21.262;2023-05-16T02:57:24;23.05;;;16.98;;
69890;SDS011;57170;43.964;21.262;2023-05-16T02:59:50;19.45;;;15.85;;
69890;SDS011;57170;43.964;21.262;2023-05-16T03:02:16;18.38;;;15.80;;
69890;SDS011;57170;43.964;21.262;2023-05-16T03:04:42;19.80;;;16.17;;
69890;SDS011;57170;43.964;21.262;2023-05-16T03:07:08;21.08;;;15.90;;
69890;SDS011;57170;43.964;21.262;2023-05-16T03:09:34;22.13;;;16.45;;
69890;SDS011;57170;43.964;21.262;2023-05-16T03:12:00;19.33;;;16.15;;
69890;SDS011;57170;43.964;21.262;2023-05-16T03:14:26;18.58;;;15.90;;
69890;SDS011;57170;43.964;21.262;2023-05-16T03:16:52;20.98;;;17.75;;
69890;SDS011;57170;43.964;21.262;2023-05-16T03:19:18;19.50;;;16.52;;
69890;SDS011;57170;43.964;21.262;2023-05-16T03:21:45;21.35;;;18.20;;
69890;SDS011;57170;43.964;21.262;2023-05-16T03:24:11;23.63;;;19.25;;
69890;SDS011;57170;43.964;21.262;2023-05-16T03:26:37;20.60;;;18.08;;
69890;SDS011;57170;43.964;21.262;2023-05-16T03:29:03;18.88;;;16.88;;
69890;SDS011;57170;43.964;21.262;2023-05-16T03:31:29;26.27;;;18.15;;
69890;SDS011;57170;43.964;21.262;2023-05-16T03:33:56;21.92;;;17.98;;
69890;SDS011;57170;43.964;21.262;2023-05-16T03:36:22;19.75;;;17.65;;
69890;SDS011;57170;43.964;21.262;2023-05-16T03:38:49;20.10;;;17.75;;
69890;SDS011;57170;43.964;21.262;2023-05-16T03:41:15;22.20;;;17.73;;
69890;SDS011;57170;43.964;21.262;2023-05-16T03:43:41;19.73;;;17.65;;
69890;SDS011;57170;43.964;21.262;2023-05-16T03:46:07;23.17;;;18.27;;
69890;SDS011;57170;43.964;21.262;2023-05-16T03:48:33;19.35;;;15.73;;
69890;SDS011;57170;43.964;21.262;2023-05-16T03:50:59;20.20;;;17.33;;
69890;SDS011;57170;43.964;21.262;2023-05-16T03:53:25;19.05;;;15.48;;
69890;SDS011;57170;43.964;21.262;2023-05-16T03:55:51;14.70;;;13.20;;
69890;SDS011;57170;43.964;21.262;2023-05-16T03:58:17;17.77;;;15.40;;
69890;SDS011;57170;43.964;21.262;2023-05-16T04:00:44;17.02;;;14.38;;
69890;SDS011;57170;43.964;21.262;2023-05-16T04:03:10;14.88;;;12.63;;
69890;SDS011;57170;43.964;21.262;2023-05-16T04:05:36;16.83;;;13.70;;
69890;SDS011;57170;43.964;21.262;2023-05-16T04:08:03;17.25;;;12.63;;
69890;SDS011;57170;43.964;21.262;2023-05-16T04:10:29;16.60;;;14.85;;
69890;SDS011;57170;43.964;21.262;2023-05-16T04:12:55;20.30;;;14.90;;
69890;SDS011;57170;43.964;21.262;2023-05-16T04:15:21;15.85;;;13.82;;
69890;SDS011;57170;43.964;21.262;2023-05-16T04:17:47;15.50;;;13.82;;
69890;SDS011;57170;43.964;21.262;2023-05-16T04:20:14;18.55;;;14.20;;
69890;SDS011;57170;43.964;21.262;2023-05-16T04:22:40;17.30;;;13.30;;
69890;SDS011;57170;43.964;21.262;2023-05-16T04:25:07;21.00;;;14.25;;
69890;SDS011;57170;43.964;21.262;2023-05-16T04:27:33;16.48;;;14.48;;
69890;SDS011;57170;43.964;21.262;2023-05-16T04:29:59;18.77;;;14.38;;
69890;SDS011;57170;43.964;21.262;2023-05-16T04:32:25;15.40;;;13.82;;
69890;SDS011;57170;43.964;21.262;2023-05-16T04:34:52;19.50;;;14.45;;
69890;SDS011;57170;43.964;21.262;2023-05-16T04:37:19;16.98;;;14.18;;
69890;SDS011;57170;43.964;21.262;2023-05-16T04:39:45;17.77;;;13.63;;
69890;SDS011;57170;43.964;21.262;2023-05-16T04:42:11;19.52;;;13.50;;
69890;SDS011;57170;43.964;21.262;2023-05-16T04:44:37;18.77;;;13.45;;
69890;SDS011;57170;43.964;21.262;2023-05-16T04:47:03;15.68;;;13.50;;
69890;SDS011;57170;43.964;21.262;2023-05-16T04:49:30;13.40;;;11.85;;
69890;SDS011;57170;43.964;21.262;2023-05-16T04:51:56;21.27;;;13.52;;
69890;SDS011;57170;43.964;21.262;2023-05-16T04:54:23;17.90;;;14.32;;
69890;SDS011;57170;43.964;21.262;2023-05-16T04:56:50;17.92;;;15.52;;
69890;SDS011;57170;43.964;21.262;2023-05-16T04:59:16;16.88;;;14.05;;
69890;SDS011;57170;43.964;21.262;2023-05-16T05:01:42;15.48;;;13.15;;
69890;SDS011;57170;43.964;21.262;2023-05-16T05:04:08;14.75;;;12.70;;
69890;SDS011;57170;43.964;21.262;2023-05-16T05:06:34;14.80;;;13.15;;
69890;SDS011;57170;43.964;21.262;2023-05-16T05:09:00;16.85;;;12.57;;
69890;SDS011;57170;43.964;21.262;2023-05-16T05:11:27;14.88;;;12.63;;
69890;SDS011;57170;43.964;21.262;2023-05-16T05:13:53;16.58;;;12.18;;
69890;SDS011;57170;43.964;21.262;2023-05-16T05:16:19;17.48;;;12.85;;
69890;SDS011;57170;43.964;21.262;2023-05-16T05:18:45;19.92;;;14.00;;
69890;SDS011;57170;43.964;21.262;2023-05-16T05:21:11;16.27;;;14.02;;
69890;SDS011;57170;43.964;21.262;2023-05-16T05:23:37;15.10;;;13.40;;
69890;SDS011;57170;43.964;21.262;2023-05-16T05:26:03;17.70;;;13.55;;
69890;SDS011;57170;43.964;21.262;2023-05-16T05:28:30;14.35;;;12.82;;
69890;SDS011;57170;43.964;21.262;2023-05-16T05:30:56;14.90;;;11.80;;
69890;SDS011;57170;43.964;21.262;2023-05-16T05:33:25;14.95;;;11.23;;
69890;SDS011;57170;43.964;21.262;2023-05-16T05:35:51;16.33;;;13.05;;
69890;SDS011;57170;43.964;21.262;2023-05-16T05:38:18;18.27;;;12.23;;
69890;SDS011;57170;43.964;21.262;2023-05-16T05:40:44;16.92;;;11.98;;
69890;SDS011;57170;43.964;21.262;2023-05-16T05:43:11;15.32;;;12.13;;
69890;SDS011;57170;43.964;21.262;2023-05-16T05:45:37;14.55;;;12.00;;
69890;SDS011;57170;43.964;21.262;2023-05-16T05:48:03;14.40;;;12.35;;
69890;SDS011;57170;43.964;21.262;2023-05-16T05:50:29;14.93;;;12.23;;
69890;SDS011;57170;43.964;21.262;2023-05-16T05:52:55;16.45;;;13.52;;
69890;SDS011;57170;43.964;21.262;2023-05-16T05:55:21;14.25;;;12.82;;
69890;SDS011;57170;43.964;21.262;2023-05-16T05:57:47;14.70;;;13.02;;
69890;SDS011;57170;43.964;21.262;2023-05-16T06:00:13;18.80;;;13.35;;
69890;SDS011;57170;43.964;21.262;2023-05-16T06:02:40;13.80;;;12.02;;
69890;SDS011;57170;43.964;21.262;2023-05-16T06:05:06;17.60;;;12.45;;
69890;SDS011;57170;43.964;21.262;2023-05-16T06:07:32;17.40;;;12.27;;
69890;SDS011;57170;43.964;21.262;2023-05-16T06:09:58;15.80;;;11.50;;
69890;SDS011;57170;43.964;21.262;2023-05-16T06:12:28;13.82;;;10.98;;
69890;SDS011;57170;43.964;21.262;2023-05-16T06:14:54;13.40;;;10.23;;
69890;SDS011;57170;43.964;21.262;2023-05-16T06:17:20;13.00;;;10.30;;
69890;SDS011;57170;43.964;21.262;2023-05-16T06:19:46;17.05;;;10.63;;
69890;SDS011;57170;43.964;21.262;2023-05-16T06:22:13;17.23;;;10.75;;
69890;SDS011;57170;43.964;21.262;2023-05-16T06:24:39;16.02;;;11.82;;
69890;SDS011;57170;43.964;21.262;2023-05-16T06:27:06;10.68;;;9.55;;
69890;SDS011;57170;43.964;21.262;2023-05-16T06:29:32;11.23;;;10.15;;
69890;SDS011;57170;43.964;21.262;2023-05-16T06:31:58;11.35;;;9.63;;
69890;SDS011;57170;43.964;21.262;2023-05-16T06:34:24;13.40;;;9.13;;
69890;SDS011;57170;43.964;21.262;2023-05-16T06:36:55;14.27;;;9.23;;
69890;SDS011;57170;43.964;21.262;2023-05-16T06:39:21;12.48;;;8.73;;
69890;SDS011;57170;43.964;21.262;2023-05-16T06:41:47;11.75;;;8.73;;
69890;SDS011;57170;43.964;21.262;2023-05-16T06:44:13;14.73;;;9.10;;
69890;SDS011;57170;43.964;21.262;2023-05-16T06:46:39;12.25;;;8.10;;
69890;SDS011;57170;43.964;21.262;2023-05-16T06:49:05;11.10;;;8.77;;
69890;SDS011;57170;43.964;21.262;2023-05-16T06:51:31;11.10;;;7.72;;
69890;SDS011;57170;43.964;21.262;2023-05-16T06:53:58;19.67;;;9.25;;
69890;SDS011;57170;43.964;21.262;2023-05-16T06:56:24;13.77;;;9.50;;
69890;SDS011;57170;43.964;21.262;2023-05-16T06:58:50;12.02;;;9.15;;
69890;SDS011;57170;43.964;21.262;2023-05-16T07:01:16;15.85;;;10.40;;
69890;SDS011;57170;43.964;21.262;2023-05-16T07:03:42;17.05;;;10.15;;
69890;SDS011;57170;43.964;21.262;2023-05-16T07:06:08;17.63;;;8.88;;
69890;SDS011;57170;43.964;21.262;2023-05-16T07:08:34;16.65;;;9.88;;
69890;SDS011;57170;43.964;21.262;2023-05-16T07:11:01;10.85;;;9.77;;
69890;SDS011;57170;43.964;21.262;2023-05-16T07:13:27;11.85;;;9.25;;
69890;SDS011;57170;43.964;21.262;2023-05-16T07:15:53;9.35;;;8.35;;
69890;SDS011;57170;43.964;21.262;2023-05-16T07:18:19;14.68;;;8.45;;
69890;SDS011;57170;43.964;21.262;2023-05-16T07:20:45;12.07;;;8.30;;
69890;SDS011;57170;43.964;21.262;2023-05-16T07:23:12;11.98;;;8.93;;
69890;SDS011;57170;43.964;21.262;2023-05-16T07:25:38;12.68;;;8.63;;
69890;SDS011;57170;43.964;21.262;2023-05-16T07:28:04;12.35;;;8.30;;
69890;SDS011;57170;43.964;21.262;2023-05-16T07:30:30;15.55;;;8.73;;
69890;SDS011;57170;43.964;21.262;2023-05-16T07:32:57;10.25;;;9.20;;
69890;SDS011;57170;43.964;21.262;2023-05-16T07:35:23;12.75;;;8.98;;
69890;SDS011;57170;43.964;21.262;2023-05-16T07:37:49;12.23;;;8.75;;
69890;SDS011;57170;43.964;21.262;2023-05-16T07:40:15;13.07;;;8.27;;
69890;SDS011;57170;43.964;21.262;2023-05-16T07:42:42;14.18;;;9.82;;
69890;SDS011;57170;43.964;21.262;2023-05-16T07:45:08;13.75;;;9.45;;
69890;SDS011;57170;43.964;21.262;2023-05-16T07:47:34;9.77;;;7.93;;
69890;SDS011;57170;43.964;21.262;2023-05-16T07:50:01;11.45;;;7.82;;
69890;SDS011;57170;43.964;21.262;2023-05-16T07:52:27;12.63;;;7.80;;
69890;SDS011;57170;43.964;21.262;2023-05-16T07:54:53;13.70;;;8.25;;
69890;SDS011;57170;43.964;21.262;2023-05-16T07:57:19;14.43;;;8.02;;
69890;SDS011;57170;43.964;21.262;2023-05-16T07:59:46;11.73;;;7.80;;
69890;SDS011;57170;43.964;21.262;2023-05-16T08:02:12;13.65;;;8.95;;
69890;SDS011;57170;43.964;21.262;2023-05-16T08:04:38;10.65;;;7.28;;
69890;SDS011;57170;43.964;21.262;2023-05-16T08:07:04;10.93;;;7.40;;
69890;SDS011;57170;43.964;21.262;2023-05-16T08:09:30;12.50;;;7.47;;
69890;SDS011;57170;43.964;21.262;2023-05-16T08:11:56;13.02;;;8.48;;
69890;SDS011;57170;43.964;21.262;2023-05-16T08:14:27;11.35;;;7.78;;
69890;SDS011;57170;43.964;21.262;2023-05-16T08:16:53;9.02;;;7.70;;
69890;SDS011;57170;43.964;21.262;2023-05-16T08:19:19;15.52;;;7.72;;
69890;SDS011;57170;43.964;21.262;2023-05-16T08:21:45;11.23;;;8.10;;
69890;SDS011;57170;43.964;21.262;2023-05-16T08:24:12;10.05;;;7.78;;
69890;SDS011;57170;43.964;21.262;2023-05-16T08:26:38;14.30;;;8.75;;
69890;SDS011;57170;43.964;21.262;2023-05-16T08:29:04;13.52;;;8.07;;
69890;SDS011;57170;43.964;21.262;2023-05-16T08:31:30;11.35;;;7.80;;
69890;SDS011;57170;43.964;21.262;2023-05-16T08:33:57;11.93;;;7.80;;
69890;SDS011;57170;43.964;21.262;2023-05-16T08:36:23;11.52;;;8.52;;
69890;SDS011;57170;43.964;21.262;2023-05-16T08:38:50;14.52;;;7.53;;
69890;SDS011;57170;43.964;21.262;2023-05-16T08:41:16;10.57;;;7.30;;
69890;SDS011;57170;43.964;21.262;2023-05-16T08:43:42;10.23;;;7.18;;
69890;SDS011;57170;43.964;21.262;2023-05-16T08:46:08;9.68;;;7.15;;
69890;SDS011;57170;43.964;21.262;2023-05-16T08:48:35;11.18;;;7.60;;
69890;SDS011;57170;43.964;21.262;2023-05-16T08:51:01;10.27;;;7.97;;
69890;SDS011;57170;43.964;21.262;2023-05-16T08:53:31;14.15;;;7.63;;
69890;SDS011;57170;43.964;21.262;2023-05-16T08:55:58;9.75;;;6.57;;
69890;SDS011;57170;43.964;21.262;2023-05-16T08:58:24;11.70;;;7.47;;
69890;SDS011;57170;43.964;21.262;2023-05-16T09:00:52;9.90;;;6.78;;
69890;SDS011;57170;43.964;21.262;2023-05-16T09:03:18;13.10;;;6.82;;
69890;SDS011;57170;43.964;21.262;2023-05-16T09:05:45;14.05;;;8.38;;
69890;SDS011;57170;43.964;21.262;2023-05-16T09:08:11;11.93;;;8.40;;
69890;SDS011;57170;43.964;21.262;2023-05-16T09:10:37;14.23;;;8.27;;
69890;SDS011;57170;43.964;21.262;2023-05-16T09:13:03;15.13;;;8.43;;
69890;SDS011;57170;43.964;21.262;2023-05-16T09:15:31;9.93;;;7.70;;
69890;SDS011;57170;43.964;21.262;2023-05-16T09:18:00;12.18;;;8.02;;
69890;SDS011;57170;43.964;21.262;2023-05-16T09:20:28;12.60;;;7.95;;
69890;SDS011;57170;43.964;21.262;2023-05-16T09:22:58;10.23;;;8.00;;
69890;SDS011;57170;43.964;21.262;2023-05-16T09:25:26;11.43;;;8.73;;
69890;SDS011;57170;43.964;21.262;2023-05-16T09:27:53;13.68;;;8.13;;
69890;SDS011;57170;43.964;21.262;2023-05-16T09:30:23;18.20;;;8.43;;
69890;SDS011;57170;43.964;21.262;2023-05-16T09:32:52;11.67;;;6.90;;
69890;SDS011;57170;43.964;21.262;2023-05-16T09:35:18;10.90;;;7.75;;
69890;SDS011;57170;43.964;21.262;2023-05-16T09:37:45;12.30;;;7.82;;
69890;SDS011;57170;43.964;21.262;2023-05-16T09:40:11;12.15;;;7.97;;
69890;SDS011;57170;43.964;21.262;2023-05-16T09:42:38;11.43;;;9.57;;
69890;SDS011;57170;43.964;21.262;2023-05-16T09:45:04;14.60;;;8.85;;
69890;SDS011;57170;43.964;21.262;2023-05-16T09:47:30;12.82;;;8.63;;
69890;SDS011;57170;43.964;21.262;2023-05-16T09:49:57;13.50;;;8.40;;
69890;SDS011;57170;43.964;21.262;2023-05-16T09:52:26;12.75;;;8.88;;
69890;SDS011;57170;43.964;21.262;2023-05-16T09:54:53;14.43;;;8.48;;
69890;SDS011;57170;43.964;21.262;2023-05-16T09:57:19;11.52;;;8.45;;
69890;SDS011;57170;43.964;21.262;2023-05-16T09:59:46;11.90;;;8.68;;
69890;SDS011;57170;43.964;21.262;2023-05-16T10:02:12;12.80;;;8.82;;
69890;SDS011;57170;43.964;21.262;2023-05-16T10:04:39;16.13;;;8.70;;
69890;SDS011;57170;43.964;21.262;2023-05-16T10:07:05;13.38;;;8.55;;
69890;SDS011;57170;43.964;21.262;2023-05-16T10:09:33;9.40;;;8.00;;
69890;SDS011;57170;43.964;21.262;2023-05-16T10:12:01;9.75;;;8.00;;
69890;SDS011;57170;43.964;21.262;2023-05-16T10:14:28;12.45;;;8.52;;
69890;SDS011;57170;43.964;21.262;2023-05-16T10:16:55;13.45;;;9.35;;
69890;SDS011;57170;43.964;21.262;2023-05-16T10:19:22;13.05;;;8.32;;
69890;SDS011;57170;43.964;21.262;2023-05-16T10:21:50;9.85;;;8.77;;
69890;SDS011;57170;43.964;21.262;2023-05-16T10:24:20;13.13;;;9.02;;
69890;SDS011;57170;43.964;21.262;2023-05-16T10:26:47;16.88;;;9.32;;
69890;SDS011;57170;43.964;21.262;2023-05-16T10:29:13;9.88;;;8.48;;
69890;SDS011;57170;43.964;21.262;2023-05-16T10:31:39;10.52;;;7.25;;
69890;SDS011;57170;43.964;21.262;2023-05-16T10:34:06;13.70;;;8.43;;
69890;SDS011;57170;43.964;21.262;2023-05-16T10:36:32;13.50;;;8.32;;
69890;SDS011;57170;43.964;21.262;2023-05-16T10:38:59;10.60;;;8.07;;
69890;SDS011;57170;43.964;21.262;2023-05-16T10:41:25;12.23;;;7.82;;
69890;SDS011;57170;43.964;21.262;2023-05-16T10:43:56;13.57;;;8.05;;
69890;SDS011;57170;43.964;21.262;2023-05-16T10:46:22;11.63;;;8.02;;
69890;SDS011;57170;43.964;21.262;2023-05-16T10:48:49;13.48;;;8.07;;
69890;SDS011;57170;43.964;21.262;2023-05-16T10:53:50;14.18;;;8.60;;
69890;SDS011;57170;43.964;21.262;2023-05-16T10:56:21;11.55;;;8.25;;
69890;SDS011;57170;43.964;21.262;2023-05-16T10:58:47;13.55;;;8.75;;
69890;SDS011;57170;43.964;21.262;2023-05-16T11:01:18;12.95;;;9.45;;
69890;SDS011;57170;43.964;21.262;2023-05-16T11:06:30;17.58;;;8.73;;
69890;SDS011;57170;43.964;21.262;2023-05-16T11:14:33;11.15;;;8.20;;
69890;SDS011;57170;43.964;21.262;2023-05-16T11:17:02;14.70;;;8.27;;
69890;SDS011;57170;43.964;21.262;2023-05-16T11:24:36;9.30;;;7.10;;
69890;SDS011;57170;43.964;21.262;2023-05-16T11:27:03;13.98;;;7.70;;
69890;SDS011;57170;43.964;21.262;2023-05-16T11:29:33;10.50;;;8.00;;
69890;SDS011;57170;43.964;21.262;2023-05-16T11:32:00;14.35;;;8.52;;
69890;SDS011;57170;43.964;21.262;2023-05-16T11:34:27;13.63;;;9.40;;
69890;SDS011;57170;43.964;21.262;2023-05-16T11:36:54;12.30;;;8.65;;
69890;SDS011;57170;43.964;21.262;2023-05-16T11:39:21;11.60;;;8.80;;
69890;SDS011;57170;43.964;21.262;2023-05-16T11:41:50;14.10;;;8.60;;
69890;SDS011;57170;43.964;21.262;2023-05-16T11:44:16;15.68;;;8.25;;
69890;SDS011;57170;43.964;21.262;2023-05-16T11:46:42;10.45;;;7.90;;
69890;SDS011;57170;43.964;21.262;2023-05-16T11:49:09;12.70;;;9.55;;
69890;SDS011;57170;43.964;21.262;2023-05-16T11:51:39;12.15;;;8.93;;
69890;SDS011;57170;43.964;21.262;2023-05-16T11:54:10;16.60;;;8.80;;
69890;SDS011;57170;43.964;21.262;2023-05-16T11:56:37;12.50;;;9.88;;
69890;SDS011;57170;43.964;21.262;2023-05-16T11:59:04;18.63;;;9.45;;
69890;SDS011;57170;43.964;21.262;2023-05-16T12:01:34;13.07;;;9.32;;
69890;SDS011;57170;43.964;21.262;2023-05-16T12:04:01;12.70;;;8.32;;
69890;SDS011;57170;43.964;21.262;2023-05-16T12:06:28;14.43;;;8.60;;
69890;SDS011;57170;43.964;21.262;2023-05-16T12:08:55;10.05;;;7.88;;
69890;SDS011;57170;43.964;21.262;2023-05-16T12:11:24;17.15;;;8.77;;
69890;SDS011;57170;43.964;21.262;2023-05-16T12:13:50;12.27;;;8.32;;
69890;SDS011;57170;43.964;21.262;2023-05-16T12:16:17;10.85;;;8.38;;
69890;SDS011;57170;43.964;21.262;2023-05-16T12:18:43;13.05;;;8.55;;
69890;SDS011;57170;43.964;21.262;2023-05-16T12:21:09;12.65;;;7.93;;
69890;SDS011;57170;43.964;21.262;2023-05-16T12:23:35;11.20;;;8.52;;
69890;SDS011;57170;43.964;21.262;2023-05-16T12:26:01;11.38;;;7.85;;
69890;SDS011;57170;43.964;21.262;2023-05-16T12:28:32;16.67;;;10.65;;
69890;SDS011;57170;43.964;21.262;2023-05-16T12:30:59;15.25;;;11.05;;
69890;SDS011;57170;43.964;21.262;2023-05-16T12:33:26;11.30;;;9.27;;
69890;SDS011;57170;43.964;21.262;2023-05-16T12:35:52;13.63;;;9.38;;
69890;SDS011;57170;43.964;21.262;2023-05-16T12:38:19;15.40;;;9.60;;
69890;SDS011;57170;43.964;21.262;2023-05-16T12:40:45;14.27;;;9.88;;
69890;SDS011;57170;43.964;21.262;2023-05-16T12:43:19;15.98;;;8.70;;
69890;SDS011;57170;43.964;21.262;2023-05-16T12:45:51;13.32;;;9.82;;
69890;SDS011;57170;43.964;21.262;2023-05-16T12:48:17;19.20;;;9.60;;
69890;SDS011;57170;43.964;21.262;2023-05-16T12:50:43;9.95;;;8.82;;
69890;SDS011;57170;43.964;21.262;2023-05-16T12:53:13;16.80;;;8.85;;
69890;SDS011;57170;43.964;21.262;2023-05-16T12:55:40;14.60;;;9.98;;
69890;SDS011;57170;43.964;21.262;2023-05-16T12:58:06;13.25;;;9.20;;
69890;SDS011;57170;43.964;21.262;2023-05-16T13:00:32;19.23;;;9.90;;
69890;SDS011;57170;43.964;21.262;2023-05-16T13:03:00;13.50;;;9.50;;
69890;SDS011;57170;43.964;21.262;2023-05-16T13:05:27;20.77;;;9.90;;
69890;SDS011;57170;43.964;21.262;2023-05-16T13:07:53;13.98;;;9.07;;
69890;SDS011;57170;43.964;21.262;2023-05-16T13:10:20;21.10;;;9.05;;
69890;SDS011;57170;43.964;21.262;2023-05-16T13:12:46;13.77;;;9.32;;
69890;SDS011;57170;43.964;21.262;2023-05-16T13:15:12;16.70;;;10.52;;
69890;SDS011;57170;43.964;21.262;2023-05-16T13:17:39;15.93;;;11.43;;
69890;SDS011;57170;43.964;21.262;2023-05-16T13:20:06;17.13;;;11.15;;
69890;SDS011;57170;43.964;21.262;2023-05-16T13:22:38;16.67;;;11.52;;
69890;SDS011;57170;43.964;21.262;2023-05-16T13:25:05;13.60;;;9.95;;
69890;SDS011;57170;43.964;21.262;2023-05-16T13:27:32;13.60;;;9.52;;
69890;SDS011;57170;43.964;21.262;2023-05-16T13:29:58;15.07;;;9.75;;
69890;SDS011;57170;43.964;21.262;2023-05-16T13:32:24;13.07;;;8.65;;
69890;SDS011;57170;43.964;21.262;2023-05-16T13:34:51;14.63;;;9.57;;
69890;SDS011;57170;43.964;21.262;2023-05-16T13:37:17;13.68;;;8.27;;
69890;SDS011;57170;43.964;21.262;2023-05-16T13:39:43;12.90;;;9.35;;
69890;SDS011;57170;43.964;21.262;2023-05-16T13:42:10;14.20;;;9.95;;
69890;SDS011;57170;43.964;21.262;2023-05-16T13:44:36;12.25;;;8.63;;
69890;SDS011;57170;43.964;21.262;2023-05-16T13:47:02;13.85;;;9.05;;
69890;SDS011;57170;43.964;21.262;2023-05-16T13:49:28;12.45;;;8.20;;
69890;SDS011;57170;43.964;21.262;2023-05-16T13:51:54;17.92;;;9.52;;
69890;SDS011;57170;43.964;21.262;2023-05-16T13:54:22;12.98;;;9.63;;
69890;SDS011;57170;43.964;21.262;2023-05-16T13:56:48;14.00;;;10.55;;
69890;SDS011;57170;43.964;21.262;2023-05-16T13:59:14;14.05;;;9.15;;
69890;SDS011;57170;43.964;21.262;2023-05-16T14:01:40;15.13;;;9.75;;
69890;SDS011;57170;43.964;21.262;2023-05-16T14:04:06;16.33;;;9.70;;
69890;SDS011;57170;43.964;21.262;2023-05-16T14:06:33;14.27;;;9.75;;
69890;SDS011;57170;43.964;21.262;2023-05-16T14:08:59;13.82;;;9.23;;
69890;SDS011;57170;43.964;21.262;2023-05-16T14:11:25;16.27;;;9.07;;
69890;SDS011;57170;43.964;21.262;2023-05-16T14:13:54;18.48;;;9.95;;
69890;SDS011;57170;43.964;21.262;2023-05-16T14:16:20;13.10;;;8.57;;
69890;SDS011;57170;43.964;21.262;2023-05-16T14:18:47;11.77;;;8.50;;
69890;SDS011;57170;43.964;21.262;2023-05-16T14:21:13;13.82;;;8.63;;
69890;SDS011;57170;43.964;21.262;2023-05-16T14:23:39;10.98;;;9.77;;
69890;SDS011;57170;43.964;21.262;2023-05-16T14:26:05;13.75;;;9.35;;
69890;SDS011;57170;43.964;21.262;2023-05-16T14:28:31;13.73;;;9.05;;
69890;SDS011;57170;43.964;21.262;2023-05-16T14:30:58;11.50;;;8.82;;
69890;SDS011;57170;43.964;21.262;2023-05-16T14:33:24;11.13;;;8.65;;
69890;SDS011;57170;43.964;21.262;2023-05-16T14:35:50;11.65;;;8.23;;